sensor_id;sensor_type;location;lat;lon;timestamp;P1;durP1;ratioP1;P2;durP2;ratioP2
18172;SDS011;9211;48.818;9.312;2023-11-18T00:00:01;6.07;;;4.13;;
18172;SDS011;9211;48.818;9.312;2023-11-18T00:02:36;5.75;;;4.07;;
18172;SDS011;9211;48.818;9.312;2023-11-18T00:05:03;7.57;;;4.27;;
18172;SDS011;9211;48.818;9.312;2023-11-18T00:07:32;7.10;;;4.30;;
18172;SDS011;9211;48.818;9.312;2023-11-18T00:10:00;7.22;;;4.32;;
18172;SDS011;9211;48.818;9.312;2023-11-18T00:12:27;6.55;;;4.38;;
18172;SDS011;9211;48.818;9.312;2023-11-18T00:14:54;6.55;;;4.30;;
18172;SDS011;9211;48.818;9.312;2023-11-18T00:17:21;6.82;;;4.55;;
18172;SDS011;9211;48.818;9.312;2023-11-18T00:19:48;6.72;;;4.32;;
18172;SDS011;9211;48.818;9.312;2023-11-18T00:22:15;8.40;;;4.60;;
18172;SDS011;9211;48.818;9.312;2023-11-18T00:24:42;6.22;;;4.35;;
18172;SDS011;9211;48.818;9.312;2023-11-18T00:27:10;7.73;;;5.00;;
18172;SDS011;9211;48.818;9.312;2023-11-18T00:29:40;7.27;;;4.60;;
18172;SDS011;9211;48.818;9.312;2023-11-18T00:32:08;7.05;;;4.80;;
18172;SDS011;9211;48.818;9.312;2023-11-18T00:34:36;7.60;;;4.90;;
18172;SDS011;9211;48.818;9.312;2023-11-18T00:37:02;8.85;;;4.80;;
18172;SDS011;9211;48.818;9.312;2023-11-18T00:39:30;7.22;;;4.82;;
18172;SDS011;9211;48.818;9.312;2023-11-18T00:41:57;6.40;;;4.63;;
18172;SDS011;9211;48.818;9.312;2023-11-18T00:44:25;7.32;;;4.20;;
18172;SDS011;9211;48.818;9.312;2023-11-18T00:46:52;6.60;;;4.78;;
18172;SDS011;9211;48.818;9.312;2023-11-18T00:49:19;7.45;;;4.50;;
18172;SDS011;9211;48.818;9.312;2023-11-18T00:51:45;6.22;;;4.30;;
18172;SDS011;9211;48.818;9.312;2023-11-18T00:54:12;6.50;;;4.22;;
18172;SDS011;9211;48.818;9.312;2023-11-18T00:56:41;7.47;;;4.20;;
18172;SDS011;9211;48.818;9.312;2023-11-18T00:59:08;5.90;;;3.90;;
18172;SDS011;9211;48.818;9.312;2023-11-18T01:01:36;6.03;;;4.13;;
18172;SDS011;9211;48.818;9.312;2023-11-18T01:04:03;6.72;;;4.15;;
18172;SDS011;9211;48.818;9.312;2023-11-18T01:06:30;6.13;;;4.07;;
18172;SDS011;9211;48.818;9.312;2023-11-18T01:08:57;5.80;;;3.80;;
18172;SDS011;9211;48.818;9.312;2023-11-18T01:11:24;5.90;;;3.60;;
18172;SDS011;9211;48.818;9.312;2023-11-18T01:13:51;6.95;;;4.03;;
18172;SDS011;9211;48.818;9.312;2023-11-18T01:16:20;6.07;;;4.00;;
18172;SDS011;9211;48.818;9.312;2023-11-18T01:18:48;6.73;;;3.87;;
18172;SDS011;9211;48.818;9.312;2023-11-18T01:21:15;4.82;;;3.38;;
18172;SDS011;9211;48.818;9.312;2023-11-18T01:23:42;5.67;;;3.57;;
18172;SDS011;9211;48.818;9.312;2023-11-18T01:26:10;5.43;;;3.22;;
18172;SDS011;9211;48.818;9.312;2023-11-18T01:28:38;6.07;;;3.88;;
18172;SDS011;9211;48.818;9.312;2023-11-18T01:31:08;5.07;;;3.38;;
18172;SDS011;9211;48.818;9.312;2023-11-18T01:33:36;4.65;;;3.22;;
18172;SDS011;9211;48.818;9.312;2023-11-18T01:36:07;5.03;;;3.30;;
18172;SDS011;9211;48.818;9.312;2023-11-18T01:38:35;5.30;;;3.55;;
18172;SDS011;9211;48.818;9.312;2023-11-18T01:41:02;4.43;;;2.90;;
18172;SDS011;9211;48.818;9.312;2023-11-18T01:43:31;4.68;;;3.50;;
18172;SDS011;9211;48.818;9.312;2023-11-18T01:45:59;5.37;;;3.23;;
18172;SDS011;9211;48.818;9.312;2023-11-18T01:48:29;4.97;;;3.20;;
18172;SDS011;9211;48.818;9.312;2023-11-18T01:50:58;4.95;;;3.45;;
18172;SDS011;9211;48.818;9.312;2023-11-18T01:53:30;6.40;;;4.00;;
18172;SDS011;9211;48.818;9.312;2023-11-18T01:55:58;7.00;;;4.45;;
18172;SDS011;9211;48.818;9.312;2023-11-18T01:58:26;7.22;;;4.78;;
18172;SDS011;9211;48.818;9.312;2023-11-18T02:00:56;7.78;;;5.13;;
18172;SDS011;9211;48.818;9.312;2023-11-18T02:03:23;7.07;;;4.38;;
18172;SDS011;9211;48.818;9.312;2023-11-18T02:05:53;6.35;;;4.38;;
18172;SDS011;9211;48.818;9.312;2023-11-18T02:08:20;6.17;;;4.17;;
18172;SDS011;9211;48.818;9.312;2023-11-18T02:10:49;6.90;;;4.32;;
18172;SDS011;9211;48.818;9.312;2023-11-18T02:13:21;8.50;;;4.28;;
18172;SDS011;9211;48.818;9.312;2023-11-18T02:15:52;6.85;;;4.10;;
18172;SDS011;9211;48.818;9.312;2023-11-18T02:18:23;6.63;;;4.00;;
18172;SDS011;9211;48.818;9.312;2023-11-18T02:20:52;6.15;;;3.55;;
18172;SDS011;9211;48.818;9.312;2023-11-18T02:23:22;7.03;;;4.00;;
18172;SDS011;9211;48.818;9.312;2023-11-18T02:25:52;6.10;;;3.95;;
18172;SDS011;9211;48.818;9.312;2023-11-18T02:28:20;5.35;;;3.63;;
18172;SDS011;9211;48.818;9.312;2023-11-18T02:30:47;6.40;;;4.00;;
18172;SDS011;9211;48.818;9.312;2023-11-18T02:33:18;5.60;;;3.88;;
18172;SDS011;9211;48.818;9.312;2023-11-18T02:35:51;5.72;;;3.80;;
18172;SDS011;9211;48.818;9.312;2023-11-18T02:38:22;4.80;;;3.72;;
18172;SDS011;9211;48.818;9.312;2023-11-18T02:40:58;6.55;;;4.20;;
18172;SDS011;9211;48.818;9.312;2023-11-18T02:43:30;7.15;;;4.05;;
18172;SDS011;9211;48.818;9.312;2023-11-18T02:45:57;6.82;;;4.28;;
18172;SDS011;9211;48.818;9.312;2023-11-18T02:48:26;8.20;;;5.32;;
18172;SDS011;9211;48.818;9.312;2023-11-18T02:50:55;9.02;;;5.82;;
18172;SDS011;9211;48.818;9.312;2023-11-18T02:53:22;8.60;;;6.20;;
18172;SDS011;9211;48.818;9.312;2023-11-18T02:55:49;10.05;;;7.05;;
18172;SDS011;9211;48.818;9.312;2023-11-18T02:58:18;11.38;;;6.88;;
18172;SDS011;9211;48.818;9.312;2023-11-18T03:03:27;10.00;;;7.10;;
18172;SDS011;9211;48.818;9.312;2023-11-18T03:05:54;10.10;;;6.93;;
18172;SDS011;9211;48.818;9.312;2023-11-18T03:08:21;9.93;;;7.07;;
18172;SDS011;9211;48.818;9.312;2023-11-18T03:10:48;10.95;;;7.00;;
18172;SDS011;9211;48.818;9.312;2023-11-18T03:13:19;8.80;;;6.47;;
18172;SDS011;9211;48.818;9.312;2023-11-18T03:15:46;9.70;;;6.60;;
18172;SDS011;9211;48.818;9.312;2023-11-18T03:18:14;8.98;;;6.68;;
18172;SDS011;9211;48.818;9.312;2023-11-18T03:20:42;10.02;;;6.50;;
18172;SDS011;9211;48.818;9.312;2023-11-18T03:23:09;10.65;;;6.93;;
18172;SDS011;9211;48.818;9.312;2023-11-18T03:25:36;9.65;;;6.57;;
18172;SDS011;9211;48.818;9.312;2023-11-18T03:28:04;9.30;;;6.32;;
18172;SDS011;9211;48.818;9.312;2023-11-18T03:30:33;8.82;;;6.30;;
18172;SDS011;9211;48.818;9.312;2023-11-18T03:33:02;10.05;;;6.57;;
18172;SDS011;9211;48.818;9.312;2023-11-18T03:35:29;9.38;;;6.55;;
18172;SDS011;9211;48.818;9.312;2023-11-18T03:37:56;11.70;;;6.35;;
18172;SDS011;9211;48.818;9.312;2023-11-18T03:40:23;9.05;;;6.65;;
18172;SDS011;9211;48.818;9.312;2023-11-18T03:42:50;9.55;;;6.57;;
18172;SDS011;9211;48.818;9.312;2023-11-18T03:45:19;8.93;;;6.20;;
18172;SDS011;9211;48.818;9.312;2023-11-18T03:47:47;9.05;;;6.18;;
18172;SDS011;9211;48.818;9.312;2023-11-18T03:50:15;10.93;;;6.75;;
18172;SDS011;9211;48.818;9.312;2023-11-18T03:52:42;9.75;;;6.85;;
18172;SDS011;9211;48.818;9.312;2023-11-18T03:55:09;10.27;;;7.10;;
18172;SDS011;9211;48.818;9.312;2023-11-18T03:57:35;10.70;;;7.13;;
18172;SDS011;9211;48.818;9.312;2023-11-18T04:00:02;11.60;;;6.75;;
18172;SDS011;9211;48.818;9.312;2023-11-18T04:02:35;11.13;;;6.72;;
18172;SDS011;9211;48.818;9.312;2023-11-18T04:05:04;9.70;;;6.50;;
18172;SDS011;9211;48.818;9.312;2023-11-18T04:07:33;9.40;;;6.40;;
18172;SDS011;9211;48.818;9.312;2023-11-18T04:10:00;11.43;;;7.10;;
18172;SDS011;9211;48.818;9.312;2023-11-18T04:12:27;11.95;;;6.75;;
18172;SDS011;9211;48.818;9.312;2023-11-18T04:14:55;9.00;;;6.40;;
18172;SDS011;9211;48.818;9.312;2023-11-18T04:17:22;8.05;;;6.18;;
18172;SDS011;9211;48.818;9.312;2023-11-18T04:19:53;8.48;;;5.85;;
18172;SDS011;9211;48.818;9.312;2023-11-18T04:22:22;8.98;;;5.72;;
18172;SDS011;9211;48.818;9.312;2023-11-18T04:24:49;8.18;;;5.82;;
18172;SDS011;9211;48.818;9.312;2023-11-18T04:27:16;9.32;;;6.15;;
18172;SDS011;9211;48.818;9.312;2023-11-18T04:29:43;8.27;;;5.80;;
18172;SDS011;9211;48.818;9.312;2023-11-18T04:32:10;8.52;;;5.55;;
18172;SDS011;9211;48.818;9.312;2023-11-18T04:34:39;9.02;;;5.70;;
18172;SDS011;9211;48.818;9.312;2023-11-18T04:37:07;6.75;;;5.03;;
18172;SDS011;9211;48.818;9.312;2023-11-18T04:39:36;8.63;;;5.80;;
18172;SDS011;9211;48.818;9.312;2023-11-18T04:42:03;7.57;;;5.65;;
18172;SDS011;9211;48.818;9.312;2023-11-18T04:44:30;8.98;;;5.78;;
18172;SDS011;9211;48.818;9.312;2023-11-18T04:46:57;8.32;;;5.70;;
18172;SDS011;9211;48.818;9.312;2023-11-18T04:49:25;7.83;;;5.70;;
18172;SDS011;9211;48.818;9.312;2023-11-18T04:51:52;9.80;;;6.30;;
18172;SDS011;9211;48.818;9.312;2023-11-18T04:54:19;9.83;;;6.20;;
18172;SDS011;9211;48.818;9.312;2023-11-18T04:56:47;10.60;;;6.05;;
18172;SDS011;9211;48.818;9.312;2023-11-18T04:59:14;7.03;;;5.28;;
18172;SDS011;9211;48.818;9.312;2023-11-18T05:01:43;8.20;;;5.60;;
18172;SDS011;9211;48.818;9.312;2023-11-18T05:04:10;7.43;;;5.47;;
18172;SDS011;9211;48.818;9.312;2023-11-18T05:06:37;7.33;;;5.20;;
18172;SDS011;9211;48.818;9.312;2023-11-18T05:09:04;7.72;;;5.28;;
18172;SDS011;9211;48.818;9.312;2023-11-18T05:11:32;7.35;;;4.97;;
18172;SDS011;9211;48.818;9.312;2023-11-18T05:14:02;8.00;;;4.90;;
18172;SDS011;9211;48.818;9.312;2023-11-18T05:16:29;7.25;;;5.13;;
18172;SDS011;9211;48.818;9.312;2023-11-18T05:18:56;6.50;;;4.70;;
18172;SDS011;9211;48.818;9.312;2023-11-18T05:21:23;7.53;;;4.57;;
18172;SDS011;9211;48.818;9.312;2023-11-18T05:23:50;5.95;;;4.53;;
18172;SDS011;9211;48.818;9.312;2023-11-18T05:26:18;5.80;;;3.97;;
18172;SDS011;9211;48.818;9.312;2023-11-18T05:28:44;7.47;;;4.18;;
18172;SDS011;9211;48.818;9.312;2023-11-18T05:31:13;5.57;;;4.00;;
18172;SDS011;9211;48.818;9.312;2023-11-18T05:33:40;5.72;;;4.03;;
18172;SDS011;9211;48.818;9.312;2023-11-18T05:36:07;5.85;;;4.07;;
18172;SDS011;9211;48.818;9.312;2023-11-18T05:38:36;6.65;;;4.10;;
18172;SDS011;9211;48.818;9.312;2023-11-18T05:41:03;6.60;;;3.95;;
18172;SDS011;9211;48.818;9.312;2023-11-18T05:43:41;6.30;;;4.25;;
18172;SDS011;9211;48.818;9.312;2023-11-18T05:46:17;5.38;;;4.10;;
18172;SDS011;9211;48.818;9.312;2023-11-18T05:48:48;7.80;;;4.03;;
18172;SDS011;9211;48.818;9.312;2023-11-18T05:51:18;7.28;;;4.30;;
18172;SDS011;9211;48.818;9.312;2023-11-18T05:53:46;8.77;;;4.53;;
18172;SDS011;9211;48.818;9.312;2023-11-18T05:56:13;6.85;;;4.40;;
18172;SDS011;9211;48.818;9.312;2023-11-18T05:58:42;5.50;;;4.15;;
18172;SDS011;9211;48.818;9.312;2023-11-18T06:01:09;5.90;;;4.40;;
18172;SDS011;9211;48.818;9.312;2023-11-18T06:03:38;7.93;;;4.90;;
18172;SDS011;9211;48.818;9.312;2023-11-18T06:06:06;7.05;;;4.90;;
18172;SDS011;9211;48.818;9.312;2023-11-18T06:08:34;9.07;;;5.32;;
18172;SDS011;9211;48.818;9.312;2023-11-18T06:11:04;7.45;;;4.68;;
18172;SDS011;9211;48.818;9.312;2023-11-18T06:13:38;6.45;;;4.45;;
18172;SDS011;9211;48.818;9.312;2023-11-18T06:16:08;8.00;;;4.60;;
18172;SDS011;9211;48.818;9.312;2023-11-18T06:18:40;7.00;;;4.88;;
18172;SDS011;9211;48.818;9.312;2023-11-18T06:21:10;8.98;;;4.97;;
18172;SDS011;9211;48.818;9.312;2023-11-18T06:23:37;6.60;;;4.57;;
18172;SDS011;9211;48.818;9.312;2023-11-18T06:26:05;6.65;;;4.40;;
18172;SDS011;9211;48.818;9.312;2023-11-18T06:28:32;6.60;;;4.20;;
18172;SDS011;9211;48.818;9.312;2023-11-18T06:31:00;9.83;;;4.57;;
18172;SDS011;9211;48.818;9.312;2023-11-18T06:33:27;5.95;;;4.32;;
18172;SDS011;9211;48.818;9.312;2023-11-18T06:35:55;7.53;;;4.13;;
18172;SDS011;9211;48.818;9.312;2023-11-18T06:38:22;8.48;;;4.20;;
18172;SDS011;9211;48.818;9.312;2023-11-18T06:40:49;6.25;;;4.10;;
18172;SDS011;9211;48.818;9.312;2023-11-18T06:43:18;6.38;;;4.22;;
18172;SDS011;9211;48.818;9.312;2023-11-18T06:45:45;7.30;;;4.28;;
18172;SDS011;9211;48.818;9.312;2023-11-18T06:48:14;7.80;;;4.23;;
18172;SDS011;9211;48.818;9.312;2023-11-18T06:50:45;6.40;;;3.97;;
18172;SDS011;9211;48.818;9.312;2023-11-18T06:53:13;6.43;;;4.00;;
18172;SDS011;9211;48.818;9.312;2023-11-18T06:55:41;6.25;;;3.80;;
18172;SDS011;9211;48.818;9.312;2023-11-18T06:58:08;5.20;;;3.95;;
18172;SDS011;9211;48.818;9.312;2023-11-18T07:00:36;7.95;;;3.70;;
18172;SDS011;9211;48.818;9.312;2023-11-18T07:03:04;5.17;;;3.60;;
18172;SDS011;9211;48.818;9.312;2023-11-18T07:05:31;5.80;;;3.80;;
18172;SDS011;9211;48.818;9.312;2023-11-18T07:07:58;6.38;;;3.80;;
18172;SDS011;9211;48.818;9.312;2023-11-18T07:10:26;8.02;;;4.25;;
18172;SDS011;9211;48.818;9.312;2023-11-18T07:12:54;7.03;;;4.53;;
18172;SDS011;9211;48.818;9.312;2023-11-18T07:15:21;7.43;;;4.87;;
18172;SDS011;9211;48.818;9.312;2023-11-18T07:17:48;7.93;;;5.07;;
18172;SDS011;9211;48.818;9.312;2023-11-18T07:20:16;8.35;;;4.82;;
18172;SDS011;9211;48.818;9.312;2023-11-18T07:22:43;6.40;;;4.70;;
18172;SDS011;9211;48.818;9.312;2023-11-18T07:25:10;7.32;;;4.70;;
18172;SDS011;9211;48.818;9.312;2023-11-18T07:27:39;6.85;;;4.50;;
18172;SDS011;9211;48.818;9.312;2023-11-18T07:30:06;7.93;;;4.65;;
18172;SDS011;9211;48.818;9.312;2023-11-18T07:32:36;8.40;;;4.65;;
18172;SDS011;9211;48.818;9.312;2023-11-18T07:35:03;7.80;;;4.40;;
18172;SDS011;9211;48.818;9.312;2023-11-18T07:37:34;6.68;;;4.70;;
18172;SDS011;9211;48.818;9.312;2023-11-18T07:40:02;7.45;;;4.72;;
18172;SDS011;9211;48.818;9.312;2023-11-18T07:42:30;8.97;;;5.00;;
18172;SDS011;9211;48.818;9.312;2023-11-18T07:45:01;7.93;;;4.80;;
18172;SDS011;9211;48.818;9.312;2023-11-18T07:47:29;7.30;;;4.60;;
18172;SDS011;9211;48.818;9.312;2023-11-18T07:49:57;6.30;;;4.30;;
18172;SDS011;9211;48.818;9.312;2023-11-18T07:52:24;6.20;;;4.50;;
18172;SDS011;9211;48.818;9.312;2023-11-18T07:54:52;6.05;;;4.00;;
18172;SDS011;9211;48.818;9.312;2023-11-18T07:57:19;7.45;;;4.80;;
18172;SDS011;9211;48.818;9.312;2023-11-18T07:59:49;7.32;;;4.97;;
18172;SDS011;9211;48.818;9.312;2023-11-18T08:02:17;6.30;;;4.10;;
18172;SDS011;9211;48.818;9.312;2023-11-18T08:04:45;8.10;;;3.80;;
18172;SDS011;9211;48.818;9.312;2023-11-18T08:07:12;8.43;;;4.00;;
18172;SDS011;9211;48.818;9.312;2023-11-18T08:09:38;6.80;;;4.07;;
18172;SDS011;9211;48.818;9.312;2023-11-18T08:12:07;6.88;;;4.28;;
18172;SDS011;9211;48.818;9.312;2023-11-18T08:14:34;6.75;;;3.92;;
18172;SDS011;9211;48.818;9.312;2023-11-18T08:17:02;7.35;;;4.20;;
18172;SDS011;9211;48.818;9.312;2023-11-18T08:19:32;7.30;;;4.00;;
18172;SDS011;9211;48.818;9.312;2023-11-18T08:22:00;8.25;;;4.53;;
18172;SDS011;9211;48.818;9.312;2023-11-18T08:24:29;6.47;;;4.10;;
18172;SDS011;9211;48.818;9.312;2023-11-18T08:26:58;6.70;;;4.10;;
18172;SDS011;9211;48.818;9.312;2023-11-18T08:29:25;7.28;;;4.13;;
18172;SDS011;9211;48.818;9.312;2023-11-18T08:31:56;6.28;;;4.43;;
18172;SDS011;9211;48.818;9.312;2023-11-18T08:34:23;7.10;;;4.22;;
18172;SDS011;9211;48.818;9.312;2023-11-18T08:36:52;7.28;;;4.28;;
18172;SDS011;9211;48.818;9.312;2023-11-18T08:39:19;7.27;;;4.43;;
18172;SDS011;9211;48.818;9.312;2023-11-18T08:41:46;7.53;;;4.60;;
18172;SDS011;9211;48.818;9.312;2023-11-18T08:44:15;7.00;;;4.70;;
18172;SDS011;9211;48.818;9.312;2023-11-18T08:46:42;7.33;;;4.37;;
18172;SDS011;9211;48.818;9.312;2023-11-18T08:49:09;6.90;;;4.10;;
18172;SDS011;9211;48.818;9.312;2023-11-18T08:51:37;8.13;;;3.83;;
18172;SDS011;9211;48.818;9.312;2023-11-18T08:54:08;6.55;;;3.90;;
18172;SDS011;9211;48.818;9.312;2023-11-18T08:56:47;5.78;;;4.03;;
18172;SDS011;9211;48.818;9.312;2023-11-18T08:59:16;5.60;;;3.50;;
18172;SDS011;9211;48.818;9.312;2023-11-18T09:01:45;5.93;;;3.55;;
18172;SDS011;9211;48.818;9.312;2023-11-18T09:04:14;5.50;;;3.10;;
18172;SDS011;9211;48.818;9.312;2023-11-18T09:06:45;5.53;;;3.08;;
18172;SDS011;9211;48.818;9.312;2023-11-18T09:09:14;4.22;;;2.97;;
18172;SDS011;9211;48.818;9.312;2023-11-18T09:11:41;6.63;;;2.92;;
18172;SDS011;9211;48.818;9.312;2023-11-18T09:14:08;7.13;;;3.03;;
18172;SDS011;9211;48.818;9.312;2023-11-18T09:16:36;6.95;;;2.90;;
18172;SDS011;9211;48.818;9.312;2023-11-18T09:19:06;4.85;;;2.70;;
18172;SDS011;9211;48.818;9.312;2023-11-18T09:21:34;4.95;;;2.97;;
18172;SDS011;9211;48.818;9.312;2023-11-18T09:24:01;5.53;;;3.00;;
18172;SDS011;9211;48.818;9.312;2023-11-18T09:26:31;3.25;;;2.22;;
18172;SDS011;9211;48.818;9.312;2023-11-18T09:29:00;5.07;;;2.45;;
18172;SDS011;9211;48.818;9.312;2023-11-18T09:31:27;4.07;;;2.47;;
18172;SDS011;9211;48.818;9.312;2023-11-18T09:33:56;5.00;;;2.60;;
18172;SDS011;9211;48.818;9.312;2023-11-18T09:36:23;5.25;;;2.20;;
18172;SDS011;9211;48.818;9.312;2023-11-18T09:38:53;3.85;;;2.33;;
18172;SDS011;9211;48.818;9.312;2023-11-18T09:41:22;5.18;;;2.30;;
18172;SDS011;9211;48.818;9.312;2023-11-18T09:43:57;5.07;;;2.10;;
18172;SDS011;9211;48.818;9.312;2023-11-18T09:46:27;4.43;;;2.30;;
18172;SDS011;9211;48.818;9.312;2023-11-18T09:49:01;4.63;;;2.47;;
18172;SDS011;9211;48.818;9.312;2023-11-18T09:51:40;4.45;;;2.58;;
18172;SDS011;9211;48.818;9.312;2023-11-18T09:54:10;5.53;;;2.40;;
18172;SDS011;9211;48.818;9.312;2023-11-18T09:56:45;4.75;;;2.25;;
18172;SDS011;9211;48.818;9.312;2023-11-18T09:59:25;3.80;;;2.10;;
18172;SDS011;9211;48.818;9.312;2023-11-18T10:01:59;4.30;;;2.23;;
18172;SDS011;9211;48.818;9.312;2023-11-18T10:04:29;6.80;;;2.45;;
18172;SDS011;9211;48.818;9.312;2023-11-18T10:06:57;5.15;;;2.75;;
18172;SDS011;9211;48.818;9.312;2023-11-18T10:09:27;4.13;;;2.60;;
18172;SDS011;9211;48.818;9.312;2023-11-18T10:12:02;7.45;;;3.00;;
18172;SDS011;9211;48.818;9.312;2023-11-18T10:14:33;9.25;;;2.97;;
18172;SDS011;9211;48.818;9.312;2023-11-18T10:17:03;7.43;;;2.60;;
18172;SDS011;9211;48.818;9.312;2023-11-18T10:22:20;6.35;;;2.55;;
18172;SDS011;9211;48.818;9.312;2023-11-18T10:24:48;5.88;;;2.05;;
18172;SDS011;9211;48.818;9.312;2023-11-18T10:27:19;5.80;;;1.85;;
18172;SDS011;9211;48.818;9.312;2023-11-18T10:29:50;6.82;;;2.25;;
18172;SDS011;9211;48.818;9.312;2023-11-18T10:32:21;7.07;;;2.20;;
18172;SDS011;9211;48.818;9.312;2023-11-18T10:34:53;10.95;;;3.55;;
18172;SDS011;9211;48.818;9.312;2023-11-18T10:37:21;13.13;;;4.00;;
18172;SDS011;9211;48.818;9.312;2023-11-18T10:39:49;10.43;;;3.63;;
18172;SDS011;9211;48.818;9.312;2023-11-18T10:42:17;9.07;;;2.67;;
18172;SDS011;9211;48.818;9.312;2023-11-18T10:44:58;7.28;;;2.45;;
18172;SDS011;9211;48.818;9.312;2023-11-18T10:47:27;8.25;;;2.63;;
18172;SDS011;9211;48.818;9.312;2023-11-18T10:49:54;5.17;;;2.20;;
18172;SDS011;9211;48.818;9.312;2023-11-18T10:52:22;7.15;;;2.60;;
18172;SDS011;9211;48.818;9.312;2023-11-18T10:54:51;8.33;;;2.37;;
18172;SDS011;9211;48.818;9.312;2023-11-18T10:57:19;6.72;;;2.33;;
18172;SDS011;9211;48.818;9.312;2023-11-18T11:00:01;6.40;;;2.00;;
18172;SDS011;9211;48.818;9.312;2023-11-18T11:02:30;7.57;;;2.33;;
18172;SDS011;9211;48.818;9.312;2023-11-18T11:05:01;6.20;;;2.83;;
18172;SDS011;9211;48.818;9.312;2023-11-18T11:07:28;5.53;;;2.10;;
18172;SDS011;9211;48.818;9.312;2023-11-18T11:09:59;5.93;;;2.17;;
18172;SDS011;9211;48.818;9.312;2023-11-18T11:12:31;6.33;;;2.40;;
18172;SDS011;9211;48.818;9.312;2023-11-18T11:15:03;5.38;;;1.98;;
18172;SDS011;9211;48.818;9.312;2023-11-18T11:17:39;4.18;;;1.88;;
18172;SDS011;9211;48.818;9.312;2023-11-18T11:20:12;5.70;;;2.20;;
18172;SDS011;9211;48.818;9.312;2023-11-18T11:22:51;6.85;;;2.20;;
18172;SDS011;9211;48.818;9.312;2023-11-18T11:25:33;5.93;;;2.00;;
18172;SDS011;9211;48.818;9.312;2023-11-18T11:28:08;4.63;;;1.80;;
18172;SDS011;9211;48.818;9.312;2023-11-18T11:30:42;5.65;;;2.10;;
18172;SDS011;9211;48.818;9.312;2023-11-18T11:33:13;5.72;;;2.22;;
18172;SDS011;9211;48.818;9.312;2023-11-18T11:35:51;5.43;;;2.22;;
18172;SDS011;9211;48.818;9.312;2023-11-18T11:38:22;7.40;;;2.10;;
18172;SDS011;9211;48.818;9.312;2023-11-18T11:40:52;5.60;;;2.20;;
18172;SDS011;9211;48.818;9.312;2023-11-18T11:43:20;4.95;;;2.05;;
18172;SDS011;9211;48.818;9.312;2023-11-18T11:45:49;4.05;;;1.92;;
18172;SDS011;9211;48.818;9.312;2023-11-18T11:48:20;5.80;;;2.15;;
18172;SDS011;9211;48.818;9.312;2023-11-18T11:53:47;4.57;;;1.98;;
18172;SDS011;9211;48.818;9.312;2023-11-18T11:56:18;4.53;;;1.85;;
18172;SDS011;9211;48.818;9.312;2023-11-18T11:58:49;5.60;;;1.90;;
18172;SDS011;9211;48.818;9.312;2023-11-18T12:01:24;5.68;;;2.00;;
18172;SDS011;9211;48.818;9.312;2023-11-18T12:03:56;4.18;;;1.80;;
18172;SDS011;9211;48.818;9.312;2023-11-18T12:06:23;6.70;;;1.90;;
18172;SDS011;9211;48.818;9.312;2023-11-18T12:08:51;4.20;;;1.70;;
18172;SDS011;9211;48.818;9.312;2023-11-18T12:11:21;4.45;;;1.88;;
18172;SDS011;9211;48.818;9.312;2023-11-18T12:14:01;4.05;;;1.75;;
18172;SDS011;9211;48.818;9.312;2023-11-18T12:19:33;3.47;;;1.80;;
18172;SDS011;9211;48.818;9.312;2023-11-18T12:22:13;4.65;;;1.73;;
18172;SDS011;9211;48.818;9.312;2023-11-18T12:28:11;4.90;;;1.80;;
18172;SDS011;9211;48.818;9.312;2023-11-18T12:30:41;4.40;;;1.95;;
18172;SDS011;9211;48.818;9.312;2023-11-18T12:33:22;4.22;;;1.90;;
18172;SDS011;9211;48.818;9.312;2023-11-18T12:42:09;3.13;;;1.60;;
18172;SDS011;9211;48.818;9.312;2023-11-18T12:44:51;4.95;;;1.80;;
18172;SDS011;9211;48.818;9.312;2023-11-18T12:47:39;7.88;;;1.95;;
18172;SDS011;9211;48.818;9.312;2023-11-18T12:50:12;5.88;;;1.83;;
18172;SDS011;9211;48.818;9.312;2023-11-18T12:52:49;5.43;;;1.92;;
18172;SDS011;9211;48.818;9.312;2023-11-18T12:55:17;3.92;;;1.80;;
18172;SDS011;9211;48.818;9.312;2023-11-18T12:57:46;3.67;;;1.53;;
18172;SDS011;9211;48.818;9.312;2023-11-18T13:00:13;7.63;;;1.70;;
18172;SDS011;9211;48.818;9.312;2023-11-18T13:02:51;4.18;;;1.67;;
18172;SDS011;9211;48.818;9.312;2023-11-18T13:05:20;3.42;;;1.75;;
18172;SDS011;9211;48.818;9.312;2023-11-18T13:07:47;3.30;;;1.87;;
18172;SDS011;9211;48.818;9.312;2023-11-18T13:10:14;3.83;;;1.53;;
18172;SDS011;9211;48.818;9.312;2023-11-18T13:12:41;9.15;;;2.20;;
18172;SDS011;9211;48.818;9.312;2023-11-18T13:15:10;5.25;;;1.85;;
18172;SDS011;9211;48.818;9.312;2023-11-18T13:17:37;5.03;;;1.88;;
18172;SDS011;9211;48.818;9.312;2023-11-18T13:20:12;4.30;;;1.63;;
18172;SDS011;9211;48.818;9.312;2023-11-18T13:22:41;3.73;;;1.90;;
18172;SDS011;9211;48.818;9.312;2023-11-18T13:25:08;3.50;;;1.80;;
18172;SDS011;9211;48.818;9.312;2023-11-18T13:27:35;3.93;;;1.70;;
18172;SDS011;9211;48.818;9.312;2023-11-18T13:30:04;4.18;;;1.65;;
18172;SDS011;9211;48.818;9.312;2023-11-18T13:32:39;4.00;;;1.73;;
18172;SDS011;9211;48.818;9.312;2023-11-18T13:35:07;5.35;;;1.80;;
18172;SDS011;9211;48.818;9.312;2023-11-18T13:37:34;5.38;;;1.95;;
18172;SDS011;9211;48.818;9.312;2023-11-18T13:40:03;4.68;;;2.13;;
18172;SDS011;9211;48.818;9.312;2023-11-18T13:42:31;4.53;;;1.92;;
18172;SDS011;9211;48.818;9.312;2023-11-18T13:44:59;6.20;;;2.30;;
18172;SDS011;9211;48.818;9.312;2023-11-18T13:47:26;5.63;;;2.50;;
18172;SDS011;9211;48.818;9.312;2023-11-18T13:49:53;6.77;;;2.60;;
18172;SDS011;9211;48.818;9.312;2023-11-18T13:52:23;6.83;;;2.40;;
18172;SDS011;9211;48.818;9.312;2023-11-18T13:54:51;6.38;;;2.47;;
18172;SDS011;9211;48.818;9.312;2023-11-18T13:57:23;7.03;;;2.30;;
18172;SDS011;9211;48.818;9.312;2023-11-18T13:59:51;6.20;;;2.63;;
18172;SDS011;9211;48.818;9.312;2023-11-18T14:02:19;6.57;;;2.70;;
18172;SDS011;9211;48.818;9.312;2023-11-18T14:04:46;9.57;;;3.10;;
18172;SDS011;9211;48.818;9.312;2023-11-18T14:07:14;6.18;;;2.67;;
18172;SDS011;9211;48.818;9.312;2023-11-18T14:09:42;8.18;;;2.92;;
18172;SDS011;9211;48.818;9.312;2023-11-18T14:12:11;5.57;;;2.85;;
18172;SDS011;9211;48.818;9.312;2023-11-18T14:14:40;10.20;;;2.92;;
18172;SDS011;9211;48.818;9.312;2023-11-18T14:17:07;6.10;;;3.10;;
18172;SDS011;9211;48.818;9.312;2023-11-18T14:19:35;6.20;;;3.00;;
18172;SDS011;9211;48.818;9.312;2023-11-18T14:22:03;8.70;;;3.60;;
18172;SDS011;9211;48.818;9.312;2023-11-18T14:24:31;7.35;;;3.40;;
18172;SDS011;9211;48.818;9.312;2023-11-18T14:26:59;8.68;;;3.60;;
18172;SDS011;9211;48.818;9.312;2023-11-18T14:29:25;6.75;;;3.78;;
18172;SDS011;9211;48.818;9.312;2023-11-18T14:31:54;7.37;;;3.70;;
18172;SDS011;9211;48.818;9.312;2023-11-18T14:34:21;7.25;;;3.50;;
18172;SDS011;9211;48.818;9.312;2023-11-18T14:36:49;9.77;;;4.07;;
18172;SDS011;9211;48.818;9.312;2023-11-18T14:39:16;9.90;;;3.97;;
18172;SDS011;9211;48.818;9.312;2023-11-18T14:41:43;10.75;;;4.25;;
18172;SDS011;9211;48.818;9.312;2023-11-18T14:44:10;10.25;;;4.13;;
18172;SDS011;9211;48.818;9.312;2023-11-18T14:46:37;9.70;;;4.05;;
18172;SDS011;9211;48.818;9.312;2023-11-18T14:49:07;9.02;;;4.30;;
18172;SDS011;9211;48.818;9.312;2023-11-18T14:51:35;11.17;;;4.37;;
18172;SDS011;9211;48.818;9.312;2023-11-18T14:54:02;8.73;;;4.40;;
18172;SDS011;9211;48.818;9.312;2023-11-18T14:56:30;7.95;;;4.07;;
18172;SDS011;9211;48.818;9.312;2023-11-18T14:58:57;9.18;;;3.83;;
18172;SDS011;9211;48.818;9.312;2023-11-18T15:01:25;8.85;;;4.00;;
18172;SDS011;9211;48.818;9.312;2023-11-18T15:03:54;8.65;;;4.03;;
18172;SDS011;9211;48.818;9.312;2023-11-18T15:06:25;9.18;;;4.78;;
18172;SDS011;9211;48.818;9.312;2023-11-18T15:08:54;9.98;;;4.78;;
18172;SDS011;9211;48.818;9.312;2023-11-18T15:11:22;9.65;;;4.70;;
18172;SDS011;9211;48.818;9.312;2023-11-18T15:13:49;10.20;;;4.27;;
18172;SDS011;9211;48.818;9.312;2023-11-18T15:16:18;8.70;;;4.10;;
18172;SDS011;9211;48.818;9.312;2023-11-18T15:18:45;7.93;;;3.90;;
18172;SDS011;9211;48.818;9.312;2023-11-18T15:21:12;7.32;;;3.70;;
18172;SDS011;9211;48.818;9.312;2023-11-18T15:23:41;7.20;;;3.55;;
18172;SDS011;9211;48.818;9.312;2023-11-18T15:26:08;7.00;;;3.88;;
18172;SDS011;9211;48.818;9.312;2023-11-18T15:28:35;8.02;;;3.30;;
18172;SDS011;9211;48.818;9.312;2023-11-18T15:31:03;8.05;;;2.95;;